Time;durP1;ratioP1;P1;durP2;ratioP2;P2;SDS_P1;SDS_P2;PMS_P1;PMS_P2;Temp;Humidity;BMP_temperature;BMP_pressure;BME280_temperature;BME280_humidity;BME280_pressure;Samples;Min_cycle;Max_cycle;Signal;HPM_P1;HPM_P2
2021/10/07 00:00:44;;;;;;;24.00;19.20;;;15.40;99.90;;;;;;5034453;28;20182;-65
2021/10/07 00:03:10;;;;;;;25.60;19.60;;;15.40;99.90;;;;;;5033569;28;20452;-65
2021/10/07 00:05:36;;;;;;;22.67;19.60;;;15.40;99.90;;;;;;5034119;28;20904;-64
2021/10/07 00:08:02;;;;;;;27.00;18.50;;;15.40;99.90;;;;;;5047913;28;20212;-65
2021/10/07 00:10:30;;;;;;;23.53;20.00;;;15.40;99.90;;;;;;5054625;28;20386;-64
2021/10/07 00:12:55;;;;;;;24.17;18.60;;;15.40;99.90;;;;;;5054529;28;20901;-65
2021/10/07 00:15:21;;;;;;;22.93;18.97;;;15.40;99.90;;;;;;5053866;28;20419;-64
2021/10/07 00:17:47;;;;;;;24.37;18.43;;;15.40;99.90;;;;;;5054485;28;20188;-64
2021/10/07 00:20:15;;;;;;;20.80;17.27;;;15.40;99.90;;;;;;5053858;28;20183;-65
2021/10/07 00:22:41;;;;;;;23.00;17.67;;;15.40;99.90;;;;;;5053271;28;20451;-65
2021/10/07 00:25:12;;;;;;;25.07;18.50;;;15.40;99.90;;;;;;5053788;28;20493;-65
2021/10/07 00:27:38;;;;;;;23.47;18.37;;;15.40;99.90;;;;;;5054387;28;20394;-64
2021/10/07 00:30:11;;;;;;;25.13;17.97;;;15.40;99.90;;;;;;5053988;28;20402;-65
2021/10/07 00:32:44;;;;;;;21.07;18.03;;;15.40;99.90;;;;;;5054270;28;20401;-65
2021/10/07 00:35:45;;;;;;;22.40;18.47;;;15.40;99.90;;;;;;5035632;28;20479;-64
2021/10/07 00:40:47;;;;;;;27.20;18.57;;;15.40;99.90;;;;;;5054222;28;20449;-65
2021/10/07 00:43:13;;;;;;;28.43;19.70;;;15.40;99.90;;;;;;5053075;28;20813;-63
2021/10/07 00:45:39;;;;;;;21.00;17.37;;;15.40;99.90;;;;;;5053938;28;20472;-63
2021/10/07 00:48:05;;;;;;;27.97;18.37;;;15.40;99.90;;;;;;5053285;28;20894;-65
2021/10/07 00:50:31;;;;;;;21.53;18.33;;;15.40;99.90;;;;;;5053928;28;20181;-65
2021/10/07 00:52:57;;;;;;;22.10;17.93;;;15.40;99.90;;;;;;5053823;28;20175;-65
2021/10/07 00:55:23;;;;;;;24.43;18.43;;;15.40;99.90;;;;;;5053133;28;20991;-64
2021/10/07 00:57:49;;;;;;;22.67;18.67;;;15.40;99.90;;;;;;5035940;28;20413;-65
2021/10/07 01:00:15;;;;;;;20.83;18.63;;;15.40;99.90;;;;;;5053092;28;20417;-65
2021/10/07 01:02:41;;;;;;;28.27;19.70;;;15.40;99.90;;;;;;5052929;28;20219;-64
2021/10/07 01:05:07;;;;;;;27.73;18.30;;;15.40;99.90;;;;;;5052563;28;20212;-65
2021/10/07 01:07:33;;;;;;;22.80;18.70;;;15.40;99.90;;;;;;5053513;28;20171;-63
2021/10/07 01:09:59;;;;;;;23.30;18.30;;;15.40;99.90;;;;;;5035694;28;20499;-63
2021/10/07 01:12:24;;;;;;;24.00;18.50;;;15.40;99.90;;;;;;5052846;28;20414;-63
2021/10/07 01:14:54;;;;;;;24.70;19.23;;;15.40;99.90;;;;;;5053620;28;20210;-64
2021/10/07 01:17:25;;;;;;;26.40;18.70;;;15.40;99.90;;;;;;5052766;28;20203;-65
2021/10/07 01:19:53;;;;;;;23.77;19.10;;;15.40;99.90;;;;;;5052982;28;20493;-64
2021/10/07 01:22:20;;;;;;;25.03;19.60;;;15.30;99.90;;;;;;5052488;28;21010;-65
2021/10/07 01:24:46;;;;;;;21.33;17.60;;;15.30;99.90;;;;;;5033248;28;20450;-65
2021/10/07 01:27:12;;;;;;;25.77;17.93;;;15.30;99.90;;;;;;5018645;28;20420;-64
2021/10/07 01:29:39;;;;;;;22.70;17.80;;;15.30;99.90;;;;;;5053125;28;20404;-64
2021/10/07 01:32:07;;;;;;;24.80;19.03;;;15.30;99.90;;;;;;5052462;28;20758;-69
2021/10/07 01:34:33;;;;;;;24.40;18.70;;;15.30;99.90;;;;;;5052738;28;20461;-65
2021/10/07 01:36:59;;;;;;;23.00;17.77;;;15.30;99.90;;;;;;5053003;28;20467;-64
2021/10/07 01:39:25;;;;;;;27.53;19.60;;;15.30;99.90;;;;;;5052363;28;20965;-65
2021/10/07 01:41:52;;;;;;;23.57;18.10;;;15.30;99.90;;;;;;5052796;28;20467;-65
2021/10/07 01:44:23;;;;;;;20.23;17.37;;;15.30;99.90;;;;;;5034206;28;20421;-65
2021/10/07 01:46:50;;;;;;;26.20;19.10;;;15.30;99.90;;;;;;5052990;28;20414;-65
2021/10/07 01:49:15;;;;;;;27.60;17.93;;;15.30;99.90;;;;;;5052204;28;20407;-65
2021/10/07 01:51:41;;;;;;;19.20;17.00;;;15.30;99.90;;;;;;5052743;28;20401;-63
2021/10/07 01:54:07;;;;;;;24.23;17.33;;;15.30;99.90;;;;;;5052108;28;20168;-65
2021/10/07 01:56:33;;;;;;;21.00;17.73;;;15.30;99.90;;;;;;5052796;28;20176;-65
2021/10/07 01:59:00;;;;;;;23.63;17.57;;;15.30;99.90;;;;;;5034930;28;20174;-65
2021/10/07 02:01:26;;;;;;;21.57;18.20;;;15.30;99.90;;;;;;5052022;28;20407;-65
2021/10/07 02:03:52;;;;;;;20.43;16.23;;;15.30;99.90;;;;;;5044839;28;20458;-65
2021/10/07 02:06:18;;;;;;;22.23;17.37;;;15.30;99.90;;;;;;5032201;28;20194;-65
2021/10/07 02:08:43;;;;;;;20.40;15.10;;;15.30;99.90;;;;;;5032636;28;20966;-65
2021/10/07 02:11:10;;;;;;;17.20;15.23;;;15.30;99.90;;;;;;5031997;28;20982;-65
2021/10/07 02:13:35;;;;;;;22.67;17.30;;;15.20;99.90;;;;;;5032550;28;20180;-65
2021/10/07 02:16:01;;;;;;;21.67;16.43;;;15.20;99.90;;;;;;5032621;28;20420;-64
2021/10/07 02:18:27;;;;;;;21.07;16.90;;;15.10;99.90;;;;;;5031984;28;20230;-64
2021/10/07 02:20:54;;;;;;;17.23;14.80;;;15.10;99.90;;;;;;5032678;28;20410;-65
2021/10/07 02:23:20;;;;;;;20.20;15.97;;;15.10;99.90;;;;;;5032720;28;20207;-65
2021/10/07 02:25:47;;;;;;;20.33;15.67;;;15.10;99.90;;;;;;5052411;28;20406;-64
2021/10/07 02:28:13;;;;;;;21.17;15.50;;;15.00;99.90;;;;;;5051787;28;20406;-65
2021/10/07 02:30:41;;;;;;;19.87;15.10;;;15.00;99.90;;;;;;5034709;28;20432;-64
2021/10/07 02:33:07;;;;;;;20.03;14.90;;;15.00;99.90;;;;;;5052314;28;20413;-64
2021/10/07 02:35:33;;;;;;;17.73;15.30;;;15.00;99.90;;;;;;5051156;28;20456;-65
2021/10/07 02:37:59;;;;;;;19.37;14.70;;;14.90;99.90;;;;;;5051920;28;20904;-64
2021/10/07 02:40:25;;;;;;;19.83;15.17;;;14.90;99.90;;;;;;5051656;28;20411;-64
2021/10/07 02:42:51;;;;;;;18.13;15.10;;;14.80;99.90;;;;;;5052442;28;20455;-65
2021/10/07 02:45:17;;;;;;;19.37;14.87;;;14.80;99.90;;;;;;5052155;28;20455;-65
2021/10/07 02:47:43;;;;;;;17.10;13.77;;;14.80;99.90;;;;;;5056155;28;20179;-64
2021/10/07 02:50:10;;;;;;;21.30;15.60;;;14.70;99.90;;;;;;5055641;28;20408;-70
2021/10/07 02:52:36;;;;;;;20.07;15.60;;;14.70;99.90;;;;;;5038388;28;20768;-64
2021/10/07 02:55:03;;;;;;;23.33;17.30;;;14.70;99.90;;;;;;5056390;28;20419;-65
2021/10/07 02:57:28;;;;;;;21.00;15.83;;;14.60;99.90;;;;;;5055384;28;20408;-65
2021/10/07 02:59:54;;;;;;;19.90;15.50;;;14.60;99.90;;;;;;5055747;28;20420;-64
2021/10/07 03:02:20;;;;;;;22.40;16.53;;;14.60;99.90;;;;;;5055261;28;20293;-64
2021/10/07 03:04:45;;;;;;;21.80;16.07;;;14.70;99.90;;;;;;5056121;28;20174;-65
2021/10/07 03:07:11;;;;;;;19.73;16.27;;;14.70;99.90;;;;;;5055295;28;20182;-66
2021/10/07 03:09:40;;;;;;;20.87;15.10;;;14.70;99.90;;;;;;5055810;28;20266;-66
2021/10/07 03:12:07;;;;;;;19.90;16.10;;;14.70;99.90;;;;;;5055691;28;20408;-66
2021/10/07 03:14:33;;;;;;;19.47;16.37;;;14.70;99.90;;;;;;5046076;28;20427;-66
2021/10/07 03:16:59;;;;;;;18.60;15.60;;;14.70;99.90;;;;;;5044942;28;20502;-66
2021/10/07 03:19:25;;;;;;;20.93;15.40;;;14.80;99.90;;;;;;5054975;28;20879;-66
2021/10/07 03:21:51;;;;;;;23.20;16.80;;;14.80;99.90;;;;;;5055528;28;20660;-66
2021/10/07 03:24:17;;;;;;;20.30;15.80;;;14.90;99.90;;;;;;5054881;28;20404;-66
2021/10/07 03:26:43;;;;;;;22.77;17.40;;;14.80;99.90;;;;;;5055459;28;20942;-66
2021/10/07 03:29:08;;;;;;;22.20;17.60;;;14.90;99.90;;;;;;5055138;28;20301;-66
2021/10/07 03:31:34;;;;;;;21.17;16.07;;;14.90;99.90;;;;;;5054796;28;20178;-66
2021/10/07 03:34:00;;;;;;;22.73;16.83;;;14.90;99.90;;;;;;5055013;28;20685;-66
2021/10/07 03:36:26;;;;;;;21.87;16.50;;;15.00;99.90;;;;;;5054403;28;20255;-66
2021/10/07 03:38:52;;;;;;;17.60;15.03;;;15.00;99.90;;;;;;5055258;28;20174;-66
2021/10/07 03:41:18;;;;;;;19.30;16.30;;;15.00;99.90;;;;;;5054620;28;20748;-67
2021/10/07 03:43:43;;;;;;;21.10;17.43;;;15.00;99.90;;;;;;5055133;28;20461;-66
2021/10/07 03:46:09;;;;;;;19.60;15.33;;;15.00;99.90;;;;;;5055080;28;20405;-66
2021/10/07 03:48:35;;;;;;;19.67;16.17;;;15.00;99.90;;;;;;5054522;28;20173;-66
2021/10/07 03:51:01;;;;;;;19.50;15.60;;;15.00;99.90;;;;;;5054973;28;20890;-67
2021/10/07 03:53:27;;;;;;;21.47;15.77;;;15.00;99.90;;;;;;5054419;28;20510;-66
2021/10/07 03:55:54;;;;;;;20.93;16.83;;;15.00;99.90;;;;;;5054584;28;20174;-66
2021/10/07 03:58:20;;;;;;;18.47;15.03;;;14.90;99.90;;;;;;5053076;28;20767;-66
2021/10/07 04:00:45;;;;;;;21.50;16.17;;;14.90;99.90;;;;;;5054632;28;20409;-66
2021/10/07 04:03:11;;;;;;;19.10;15.97;;;15.00;99.90;;;;;;5055021;28;20552;-66
2021/10/07 04:05:37;;;;;;;18.10;16.00;;;14.90;99.90;;;;;;5054330;28;20170;-66
2021/10/07 04:08:04;;;;;;;18.07;15.33;;;14.90;99.90;;;;;;5054228;28;20273;-66
2021/10/07 04:10:33;;;;;;;20.80;15.40;;;14.90;99.90;;;;;;5053625;28;20178;-66
2021/10/07 04:12:59;;;;;;;18.80;14.30;;;14.80;99.90;;;;;;5054123;28;20427;-66
2021/10/07 04:15:25;;;;;;;19.90;14.80;;;14.80;99.90;;;;;;5053633;28;20408;-66
2021/10/07 04:17:51;;;;;;;21.77;15.10;;;14.70;99.90;;;;;;5043287;28;20416;-66
2021/10/07 04:20:17;;;;;;;18.83;16.20;;;14.70;99.90;;;;;;5053899;28;20401;-67
2021/10/07 04:22:43;;;;;;;19.10;14.70;;;14.70;99.90;;;;;;5054388;28;20612;-66
2021/10/07 04:25:09;;;;;;;20.20;16.30;;;14.70;99.90;;;;;;5054382;28;20423;-66
2021/10/07 04:27:35;;;;;;;20.10;16.60;;;14.70;99.90;;;;;;5053048;28;20512;-66
2021/10/07 04:30:04;;;;;;;21.23;16.37;;;14.60;99.90;;;;;;5053802;28;20911;-66
2021/10/07 04:32:29;;;;;;;21.33;15.40;;;14.70;99.90;;;;;;5051822;28;20427;-66
2021/10/07 04:34:55;;;;;;;19.50;15.77;;;14.60;99.90;;;;;;5054052;28;20459;-66
2021/10/07 04:37:21;;;;;;;20.40;17.23;;;14.60;99.90;;;;;;5035975;28;20189;-67
2021/10/07 04:39:47;;;;;;;20.50;15.67;;;14.50;99.90;;;;;;5054071;28;20177;-66
2021/10/07 04:42:12;;;;;;;22.80;17.03;;;14.50;99.90;;;;;;5053642;28;20662;-66
2021/10/07 04:44:38;;;;;;;21.90;16.67;;;14.50;99.90;;;;;;5051485;28;20272;-66
2021/10/07 04:47:04;;;;;;;17.87;16.03;;;14.40;99.90;;;;;;5053804;28;20177;-66
2021/10/07 04:49:29;;;;;;;22.80;17.63;;;14.40;99.90;;;;;;5049528;28;20188;-67
2021/10/07 04:51:55;;;;;;;20.07;16.17;;;14.40;99.90;;;;;;5033822;28;20183;-66
2021/10/07 04:54:21;;;;;;;20.03;15.37;;;14.40;99.90;;;;;;5022368;28;20190;-68
2021/10/07 04:56:47;;;;;;;21.60;15.90;;;14.30;99.90;;;;;;5052969;28;20431;-66
2021/10/07 04:59:13;;;;;;;19.90;17.10;;;14.30;99.90;;;;;;5053381;28;20514;-70
2021/10/07 05:01:38;;;;;;;19.90;15.83;;;14.20;99.90;;;;;;5051278;28;20183;-66
2021/10/07 05:04:04;;;;;;;23.77;17.63;;;14.10;99.90;;;;;;5053328;28;20201;-66
2021/10/07 05:06:30;;;;;;;19.77;16.13;;;14.10;99.90;;;;;;5052760;28;20260;-66
2021/10/07 05:08:56;;;;;;;20.00;16.57;;;14.00;99.90;;;;;;5053196;28;20838;-66
2021/10/07 05:11:22;;;;;;;23.60;16.03;;;14.00;99.90;;;;;;5052853;28;20424;-66
2021/10/07 05:13:48;;;;;;;21.67;16.77;;;14.00;99.90;;;;;;5053300;28;20416;-66
2021/10/07 05:16:14;;;;;;;20.13;14.40;;;14.00;99.90;;;;;;5053380;28;20942;-66
2021/10/07 05:18:40;;;;;;;20.47;15.90;;;14.00;99.90;;;;;;5052777;28;20216;-66
2021/10/07 05:21:06;;;;;;;19.93;16.33;;;14.00;99.90;;;;;;5053228;28;20786;-66
2021/10/07 05:23:33;;;;;;;17.30;14.73;;;14.00;99.90;;;;;;5052264;28;20303;-66
2021/10/07 05:26:00;;;;;;;18.47;15.70;;;14.00;99.90;;;;;;5053172;28;20173;-66
2021/10/07 05:28:26;;;;;;;19.60;16.47;;;14.10;99.90;;;;;;5034592;28;20514;-66
2021/10/07 05:30:51;;;;;;;22.27;16.20;;;14.00;99.90;;;;;;5052717;28;20503;-66
2021/10/07 05:33:20;;;;;;;18.50;14.70;;;14.00;99.90;;;;;;5052514;28;21041;-66
2021/10/07 05:35:46;;;;;;;22.40;17.80;;;14.00;99.90;;;;;;5053328;28;20174;-66
2021/10/07 05:38:13;;;;;;;23.60;17.30;;;14.00;99.90;;;;;;5035208;28;20431;-66
2021/10/07 05:40:38;;;;;;;23.30;18.20;;;14.00;99.90;;;;;;5052113;28;20404;-66
2021/10/07 05:43:04;;;;;;;24.00;17.80;;;14.00;99.90;;;;;;5050741;28;20463;-66
2021/10/07 05:45:30;;;;;;;20.10;15.57;;;14.00;99.90;;;;;;5033902;28;20210;-65
2021/10/07 05:47:55;;;;;;;23.83;16.93;;;14.00;99.90;;;;;;5052700;28;20635;-64
2021/10/07 05:50:21;;;;;;;20.27;16.47;;;14.10;99.90;;;;;;5051423;28;20256;-65
2021/10/07 05:52:47;;;;;;;19.30;16.00;;;14.00;99.90;;;;;;5041617;28;20599;-68
2021/10/07 05:55:12;;;;;;;19.60;14.67;;;14.00;99.90;;;;;;5040632;28;20188;-68
2021/10/07 05:57:38;;;;;;;21.60;16.13;;;14.00;99.90;;;;;;5052187;28;20624;-67
2021/10/07 06:00:07;;;;;;;17.53;15.30;;;13.90;99.90;;;;;;5051124;28;20261;-67
2021/10/07 06:02:35;;;;;;;24.40;17.40;;;13.90;99.90;;;;;;5051801;28;20684;-69
2021/10/07 06:05:01;;;;;;;21.53;16.70;;;13.80;99.90;;;;;;5050642;28;20427;-65
2021/10/07 06:07:27;;;;;;;23.10;17.50;;;13.80;99.90;;;;;;5046153;28;20508;-65
2021/10/07 06:09:52;;;;;;;20.73;16.73;;;13.80;99.90;;;;;;5048961;28;20963;-65
2021/10/07 06:12:18;;;;;;;22.90;17.83;;;13.80;99.90;;;;;;5050186;28;20184;-65
2021/10/07 06:14:44;;;;;;;23.43;17.03;;;13.80;99.90;;;;;;5045463;28;20253;-67
2021/10/07 06:17:10;;;;;;;25.17;18.03;;;13.80;99.90;;;;;;5051456;28;20184;-65
2021/10/07 06:19:40;;;;;;;21.40;17.07;;;13.80;99.90;;;;;;5039833;28;20348;-65
2021/10/07 06:22:06;;;;;;;22.67;17.87;;;13.80;99.90;;;;;;5037705;28;20481;-65
2021/10/07 06:24:32;;;;;;;26.23;19.13;;;13.70;99.90;;;;;;5038489;28;20817;-65
2021/10/07 06:26:59;;;;;;;22.17;17.30;;;13.80;99.90;;;;;;5051223;28;20231;-65
2021/10/07 06:29:24;;;;;;;22.67;18.77;;;13.80;99.90;;;;;;5048155;28;20427;-65
2021/10/07 06:31:50;;;;;;;22.13;16.97;;;13.80;99.90;;;;;;5045183;28;20562;-64
2021/10/07 06:34:16;;;;;;;24.63;18.00;;;13.80;99.90;;;;;;5032316;28;20983;-64
2021/10/07 06:36:42;;;;;;;24.63;17.40;;;13.80;99.90;;;;;;5042524;28;20193;-64
2021/10/07 06:39:08;;;;;;;24.20;17.17;;;13.80;99.90;;;;;;5031999;28;20451;-64
2021/10/07 06:41:34;;;;;;;25.40;18.43;;;13.80;99.90;;;;;;5031689;28;20170;-64
2021/10/07 06:44:00;;;;;;;23.73;18.20;;;13.90;99.90;;;;;;5032227;28;20571;-64
2021/10/07 06:46:27;;;;;;;26.30;17.10;;;13.80;99.90;;;;;;5041369;28;20417;-64
2021/10/07 06:48:56;;;;;;;22.53;16.90;;;13.90;99.90;;;;;;5034085;28;20423;-64
2021/10/07 06:51:24;;;;;;;25.13;18.10;;;13.90;99.90;;;;;;5050828;28;20420;-64
2021/10/07 06:53:53;;;;;;;24.80;18.10;;;13.80;99.90;;;;;;5044010;28;20428;-64
2021/10/07 06:56:20;;;;;;;24.73;17.60;;;13.90;99.90;;;;;;5045980;28;20423;-64
2021/10/07 06:58:48;;;;;;;25.40;18.23;;;14.00;99.90;;;;;;5045785;28;20508;-64
2021/10/07 07:01:14;;;;;;;23.73;18.43;;;14.00;99.90;;;;;;5036541;28;20893;-64
2021/10/07 07:03:39;;;;;;;25.43;17.37;;;13.90;99.90;;;;;;5032462;28;20465;-65
2021/10/07 07:06:05;;;;;;;25.37;18.80;;;13.90;99.90;;;;;;5034223;28;20511;-64
2021/10/07 07:08:31;;;;;;;24.20;18.13;;;13.90;99.90;;;;;;5013751;28;20202;-64
2021/10/07 07:10:56;;;;;;;23.57;18.13;;;13.90;99.90;;;;;;5032113;28;20190;-64
2021/10/07 07:13:22;;;;;;;23.93;18.73;;;13.90;99.90;;;;;;5040688;28;20182;-64
2021/10/07 07:15:47;;;;;;;26.43;17.87;;;13.90;99.90;;;;;;5039215;28;20185;-64
2021/10/07 07:18:13;;;;;;;20.27;17.47;;;13.90;99.90;;;;;;5036636;28;20608;-64
2021/10/07 07:20:39;;;;;;;25.60;19.60;;;14.00;99.90;;;;;;5031463;28;20209;-64
2021/10/07 07:23:09;;;;;;;27.67;18.37;;;14.00;99.90;;;;;;5049381;28;20284;-64
2021/10/07 07:25:35;;;;;;;23.87;18.57;;;14.00;99.90;;;;;;5040140;28;20197;-65
2021/10/07 07:28:01;;;;;;;26.80;19.13;;;14.00;99.90;;;;;;5048347;28;20427;-65
2021/10/07 07:30:26;;;;;;;22.27;17.77;;;14.10;99.90;;;;;;5051223;28;20400;-65
2021/10/07 07:32:52;;;;;;;23.57;17.23;;;14.10;99.90;;;;;;5054942;28;20188;-65
2021/10/07 07:35:18;;;;;;;27.97;16.83;;;14.20;99.90;;;;;;5054639;28;20228;-65
2021/10/07 07:37:43;;;;;;;21.60;17.70;;;14.30;99.90;;;;;;5054719;28;20196;-65
2021/10/07 07:40:10;;;;;;;23.70;17.73;;;14.30;99.90;;;;;;5055247;28;20174;-65
2021/10/07 07:42:35;;;;;;;22.33;17.03;;;14.30;99.90;;;;;;5054167;28;20288;-65
2021/10/07 07:45:03;;;;;;;23.23;16.47;;;14.30;99.90;;;;;;5054901;28;20527;-64
2021/10/07 07:47:28;;;;;;;22.50;17.20;;;14.40;99.90;;;;;;5053684;28;20266;-65
2021/10/07 07:49:54;;;;;;;27.07;18.17;;;14.50;99.90;;;;;;5054012;28;20471;-64
2021/10/07 07:52:22;;;;;;;22.10;15.93;;;14.50;99.90;;;;;;5054802;28;20266;-64
2021/10/07 07:54:48;;;;;;;24.83;16.67;;;14.50;99.90;;;;;;5054306;28;20178;-65
2021/10/07 07:57:14;;;;;;;24.30;15.87;;;14.60;99.90;;;;;;5054870;28;20397;-64
2021/10/07 07:59:40;;;;;;;22.70;17.07;;;14.60;99.90;;;;;;5054229;28;20409;-64
2021/10/07 08:02:05;;;;;;;20.70;15.37;;;14.70;99.90;;;;;;5054989;28;20602;-64
2021/10/07 08:04:31;;;;;;;21.37;15.73;;;14.80;99.90;;;;;;5054234;28;20180;-64
2021/10/07 08:06:58;;;;;;;22.90;14.53;;;14.80;99.90;;;;;;5054722;28;20253;-64
2021/10/07 08:09:26;;;;;;;20.60;15.37;;;14.90;99.90;;;;;;5054720;28;20592;-64
2021/10/07 08:11:52;;;;;;;19.13;15.60;;;14.90;99.90;;;;;;5053854;28;20411;-64
2021/10/07 08:14:18;;;;;;;16.33;13.40;;;15.00;99.90;;;;;;5054750;28;20735;-64
2021/10/07 08:16:44;;;;;;;19.97;14.90;;;15.00;99.90;;;;;;5053872;28;20490;-64
2021/10/07 08:19:10;;;;;;;18.40;13.40;;;15.10;99.90;;;;;;5054478;28;20176;-64
2021/10/07 08:21:40;;;;;;;13.17;11.30;;;15.10;99.90;;;;;;5053638;28;20417;-64
2021/10/07 08:24:08;;;;;;;14.60;11.70;;;15.20;99.90;;;;;;5054339;28;20542;-64
2021/10/07 08:26:35;;;;;;;13.67;11.47;;;15.20;99.90;;;;;;5053265;28;20596;-64
2021/10/07 08:29:01;;;;;;;13.57;12.17;;;15.20;99.90;;;;;;5053902;28;20464;-64
2021/10/07 08:31:29;;;;;;;17.17;13.07;;;15.10;99.90;;;;;;5053782;28;20875;-64
2021/10/07 08:33:54;;;;;;;13.07;11.43;;;15.10;99.90;;;;;;5054200;28;20302;-64
2021/10/07 08:36:20;;;;;;;14.53;11.80;;;15.20;99.90;;;;;;5054202;28;20464;-64
2021/10/07 08:38:46;;;;;;;13.93;11.30;;;15.20;99.90;;;;;;5053541;28;20172;-64
2021/10/07 08:41:13;;;;;;;11.37;10.20;;;15.20;99.90;;;;;;5054085;28;20399;-64
2021/10/07 08:43:40;;;;;;;12.07;10.77;;;15.20;99.90;;;;;;5052710;28;20212;-64
2021/10/07 08:46:10;;;;;;;11.03;9.80;;;15.20;99.90;;;;;;5036114;28;20461;-64
2021/10/07 08:48:37;;;;;;;11.70;10.60;;;15.30;99.90;;;;;;5053161;28;20387;-64
2021/10/07 08:51:02;;;;;;;9.20;8.23;;;15.30;99.90;;;;;;5054288;28;20418;-64
2021/10/07 08:53:28;;;;;;;10.23;9.30;;;15.20;99.90;;;;;;5053700;28;20916;-64
2021/10/07 08:55:54;;;;;;;9.10;8.30;;;15.20;99.90;;;;;;5053190;28;20235;-64
2021/10/07 08:58:20;;;;;;;10.80;9.83;;;15.40;99.90;;;;;;5053792;28;20775;-64
2021/10/07 09:00:45;;;;;;;8.53;7.83;;;15.50;99.90;;;;;;5052730;28;20203;-64
2021/10/07 09:03:20;;;;;;;10.03;9.20;;;15.50;99.90;;;;;;5053419;28;20210;-64
2021/10/07 09:05:47;;;;;;;8.63;7.77;;;15.40;99.90;;;;;;5035233;28;20173;-64
2021/10/07 09:08:15;;;;;;;9.60;8.70;;;15.40;99.90;;;;;;5053203;28;20809;-64
2021/10/07 09:10:44;;;;;;;12.97;10.97;;;15.50;99.90;;;;;;5052859;28;20402;-64
2021/10/07 09:13:21;;;;;;;10.53;9.57;;;15.60;99.90;;;;;;5053348;28;20781;-64
2021/10/07 09:15:52;;;;;;;14.00;12.60;;;15.50;99.90;;;;;;5052816;28;20443;-64
2021/10/07 09:18:19;;;;;;;11.33;9.70;;;15.60;99.90;;;;;;5053464;28;20400;-64
2021/10/07 09:20:47;;;;;;;11.13;10.00;;;15.60;99.90;;;;;;5052702;28;20750;-64
2021/10/07 09:23:17;;;;;;;10.63;9.53;;;15.50;99.90;;;;;;5053181;28;20458;-64
2021/10/07 09:26:02;;;;;;;13.10;11.90;;;15.40;99.90;;;;;;5052659;28;20497;-64
2021/10/07 09:28:49;;;;;;;11.97;10.83;;;15.30;99.90;;;;;;5053193;28;20981;-64
2021/10/07 09:31:16;;;;;;;10.63;9.73;;;15.40;99.90;;;;;;5053504;28;20393;-64
2021/10/07 09:33:44;;;;;;;10.23;9.33;;;15.30;99.90;;;;;;5052327;28;20975;-64
2021/10/07 09:36:19;;;;;;;10.10;9.20;;;15.40;99.90;;;;;;5053466;28;20437;-64
2021/10/07 09:38:51;;;;;;;9.20;8.40;;;15.40;99.90;;;;;;5052478;28;20414;-64
2021/10/07 09:41:21;;;;;;;15.30;10.37;;;15.50;99.90;;;;;;5052707;28;20406;-64
2021/10/07 09:43:52;;;;;;;10.07;9.17;;;15.80;99.90;;;;;;5052326;28;20454;-64
2021/10/07 09:46:41;;;;;;;10.13;9.30;;;15.80;99.90;;;;;;5053044;28;20392;-64
2021/10/07 09:49:20;;;;;;;10.60;9.60;;;16.00;99.90;;;;;;5039601;28;20489;-64
2021/10/07 09:51:50;;;;;;;10.43;9.53;;;16.20;99.90;;;;;;5052351;28;20478;-64
2021/10/07 09:54:18;;;;;;;10.40;9.57;;;16.10;99.80;;;;;;5052413;28;20400;-64
2021/10/07 09:56:56;;;;;;;10.37;9.50;;;16.10;99.90;;;;;;5051657;28;20411;-64
2021/10/07 09:59:22;;;;;;;10.47;9.47;;;16.10;99.90;;;;;;5052775;28;20880;-64
2021/10/07 10:01:48;;;;;;;10.40;9.40;;;16.10;99.70;;;;;;5051782;28;20400;-64
2021/10/07 10:04:14;;;;;;;11.53;10.53;;;15.90;99.70;;;;;;5052409;28;20557;-64
2021/10/07 10:06:40;;;;;;;9.37;8.50;;;15.70;99.90;;;;;;5052006;28;20189;-64
2021/10/07 10:09:07;;;;;;;10.47;9.40;;;15.80;99.90;;;;;;5052585;28;20449;-64
2021/10/07 10:11:33;;;;;;;11.30;10.40;;;15.90;99.90;;;;;;5052565;28;20787;-64
2021/10/07 10:13:59;;;;;;;10.63;9.90;;;16.10;99.90;;;;;;5051972;28;20992;-64
2021/10/07 10:16:25;;;;;;;10.00;9.10;;;16.40;99.90;;;;;;5052494;28;20400;-64
2021/10/07 10:18:57;;;;;;;9.60;8.90;;;16.70;99.90;;;;;;5051849;28;20412;-64
2021/10/07 10:21:24;;;;;;;11.70;10.83;;;17.00;99.90;;;;;;5052373;28;20454;-64
2021/10/07 10:23:52;;;;;;;9.63;8.73;;;17.30;99.90;;;;;;5051691;28;20810;-64
2021/10/07 10:26:17;;;;;;;11.27;10.37;;;17.60;98.60;;;;;;5052398;28;20411;-64
2021/10/07 10:28:47;;;;;;;10.10;9.13;;;17.80;99.00;;;;;;5051490;28;20412;-64
2021/10/07 10:31:15;;;;;;;9.50;8.70;;;18.10;97.40;;;;;;5034599;28;20172;-64
2021/10/07 10:33:44;;;;;;;11.70;10.80;;;18.20;96.30;;;;;;5051527;28;20452;-64
2021/10/07 10:36:25;;;;;;;9.83;8.93;;;18.50;97.90;;;;;;5052561;28;20412;-64
2021/10/07 10:39:15;;;;;;;9.63;8.73;;;18.90;97.20;;;;;;5051684;28;20419;-64
2021/10/07 10:41:51;;;;;;;9.23;8.43;;;19.10;94.70;;;;;;5051630;28;20487;-65
2021/10/07 10:44:26;;;;;;;7.97;7.27;;;19.50;95.60;;;;;;5052272;28;20507;-64
2021/10/07 10:47:07;;;;;;;8.27;7.57;;;19.60;94.30;;;;;;5051664;28;20486;-64
2021/10/07 10:49:51;;;;;;;7.77;7.10;;;19.80;93.50;;;;;;5051991;28;20412;-64
2021/10/07 10:52:19;;;;;;;7.90;7.30;;;19.90;92.30;;;;;;5051767;28;20956;-64
2021/10/07 10:54:48;;;;;;;7.50;6.90;;;20.00;92.30;;;;;;5051278;28;20487;-65
2021/10/07 10:57:33;;;;;;;8.40;7.70;;;20.10;93.70;;;;;;5052005;28;20436;-64
2021/10/07 11:03:12;;;;;;;9.47;8.77;;;20.30;92.10;;;;;;5051680;28;20843;-64
2021/10/07 11:05:55;;;;;;;11.60;10.80;;;20.20;92.50;;;;;;5034066;28;20465;-64
2021/10/07 11:08:23;;;;;;;7.50;6.80;;;20.20;91.70;;;;;;5055795;28;20863;-64
2021/10/07 11:10:56;;;;;;;9.83;9.13;;;20.30;91.90;;;;;;5054957;28;20423;-64
2021/10/07 11:13:31;;;;;;;7.90;7.10;;;20.50;92.40;;;;;;5055744;28;20805;-65
2021/10/07 11:16:07;;;;;;;8.60;8.03;;;20.70;92.10;;;;;;5054024;28;20423;-64
2021/10/07 11:18:35;;;;;;;9.73;9.13;;;20.90;92.30;;;;;;5050718;28;20387;-64
2021/10/07 11:21:09;;;;;;;7.60;7.00;;;21.20;91.40;;;;;;5054789;28;20967;-64
2021/10/07 11:23:36;;;;;;;9.80;9.20;;;21.40;90.20;;;;;;5055621;28;20444;-64
2021/10/07 11:26:03;;;;;;;7.60;7.10;;;21.50;88.70;;;;;;5054906;28;20462;-64
2021/10/07 11:28:32;;;;;;;9.60;8.90;;;21.60;90.00;;;;;;5055450;28;20416;-64
2021/10/07 11:31:07;;;;;;;7.13;6.63;;;21.60;87.40;;;;;;5054794;28;20492;-65
2021/10/07 11:33:34;;;;;;;7.20;6.60;;;21.60;89.20;;;;;;5037502;28;20768;-64
2021/10/07 11:36:03;;;;;;;9.23;8.63;;;21.50;90.00;;;;;;5053934;28;20408;-64
2021/10/07 11:38:30;;;;;;;8.03;7.43;;;21.60;87.20;;;;;;5055351;28;20424;-64
2021/10/07 11:40:56;;;;;;;8.00;7.40;;;21.30;84.80;;;;;;5054721;28;20436;-64
2021/10/07 11:43:24;;;;;;;7.80;7.10;;;21.00;86.90;;;;;;5055205;28;20513;-64
2021/10/07 11:45:55;;;;;;;7.43;6.73;;;20.80;90.10;;;;;;5054572;28;20403;-64
2021/10/07 11:48:23;;;;;;;7.33;6.70;;;20.70;91.30;;;;;;5054889;28;20776;-64
2021/10/07 11:50:51;;;;;;;7.30;6.67;;;20.70;90.90;;;;;;5054491;28;20445;-64
2021/10/07 11:53:27;;;;;;;7.27;6.77;;;20.70;90.70;;;;;;5055038;28;20418;-64
2021/10/07 11:55:53;;;;;;;8.70;8.00;;;20.80;90.90;;;;;;5054187;28;20417;-64
2021/10/07 11:58:19;;;;;;;8.13;7.43;;;20.80;91.10;;;;;;5054582;28;20434;-64
2021/10/07 12:00:47;;;;;;;7.27;6.67;;;20.80;91.20;;;;;;5053890;28;20400;-69
2021/10/07 12:03:31;;;;;;;7.60;7.00;;;20.80;90.50;;;;;;5054614;28;20207;-64
2021/10/07 12:06:05;;;;;;;8.00;7.33;;;20.80;90.90;;;;;;5054380;28;20424;-64
2021/10/07 12:08:37;;;;;;;8.00;7.30;;;20.90;90.20;;;;;;5054799;28;20817;-64
2021/10/07 12:11:05;;;;;;;8.40;7.70;;;20.90;89.80;;;;;;5054120;28;20408;-64
2021/10/07 12:13:40;;;;;;;8.80;8.10;;;20.90;90.10;;;;;;5036783;28;20420;-65
2021/10/07 12:16:16;;;;;;;6.43;6.03;;;20.80;90.60;;;;;;5054069;28;20848;-64
2021/10/07 12:18:49;;;;;;;7.57;7.00;;;20.70;90.80;;;;;;5053128;28;20903;-69
2021/10/07 12:21:25;;;;;;;8.47;7.70;;;20.60;90.70;;;;;;5054532;28;20408;-64
2021/10/07 12:24:03;;;;;;;7.70;7.10;;;20.50;90.90;;;;;;5053410;28;20494;-64
2021/10/07 12:26:45;;;;;;;7.13;6.63;;;20.50;90.40;;;;;;5054328;28;20411;-64
2021/10/07 12:29:32;;;;;;;8.00;7.30;;;20.30;90.50;;;;;;5053822;28;20411;-64
2021/10/07 12:32:02;;;;;;;6.40;6.00;;;20.20;91.30;;;;;;5053614;28;20392;-64
2021/10/07 12:34:36;;;;;;;7.63;7.03;;;20.20;91.50;;;;;;5053711;28;20566;-64
2021/10/07 12:37:04;;;;;;;8.30;7.60;;;20.20;90.70;;;;;;5053366;28;20393;-64
2021/10/07 12:39:31;;;;;;;8.23;7.50;;;20.20;90.60;;;;;;5054413;28;20428;-64